<?xml version="1.0" encoding="UTF-8" standalone="no" ?>
<gpx xmlns="http://www.topografix.com/GPX/1/1" xmlns:xsi="http://www.w3.org/2001/XMLSchema-instance" xsi:schemaLocation="http://www.topografix.com/GPX/1/1 http://www.topografix.com/GPX/1/1/gpx.xsd" version="1.1" creator="VisuGPX - https://www.visugpx.com">
  <metadata>
    <name>Marche 18/03/2018</name>
    <desc><![CDATA[Marche Odyséa du 18/03/2018.
13 000 participants.]]></desc>
  </metadata>
  <trk>
    <name><![CDATA[2018-03-18 11:22]]></name>
    <desc><![CDATA[<p>Heure de départ: 03/18/2018 11:22<br/>Heure d'arrivée: 03/18/2018 12:47<br/>Distance: 5,5 km (01:25)<br/>Temps déplacement: 01:15<br/>Vitesse moyenne: 3,88 km/h<br/>Vitesse moyenne mouv.: 4,38 km/h<br/>Vitesse Max.: 15,09 km/h<br/>Altitude minimale: 0 m<br/>Altitude maximale: 109 m<br/>Vitesse de montée: 334,3 m/h<br/>Vitesse de descente: -322,4 m/h<br/>Gain d'altitude: 166 m<br/>Perte d'altitude: -272 m<br/>Temps de montée: 00:29<br/>Temps de descente: 00:50<br/></p><hr align="center" width="480" style="height: 2px; width: 517px"/>]]></desc>
    <trkseg>
      <trkpt lat="47.21956" lon="-1.55003">
        <ele>109.17</ele>
        <time>2018-03-18T10:22:47Z</time>
      </trkpt>
      <trkpt lat="47.21975" lon="-1.54996">
        <ele>71.01</ele>
        <time>2018-03-18T10:22:50Z</time>
      </trkpt>
      <trkpt lat="47.21994" lon="-1.54997">
        <ele>82.06</ele>
        <time>2018-03-18T10:23:04Z</time>
      </trkpt>
      <trkpt lat="47.22009" lon="-1.5501">
        <ele>84.38</ele>
        <time>2018-03-18T10:23:24Z</time>
      </trkpt>
      <trkpt lat="47.22028" lon="-1.55022">
        <ele>84.27</ele>
        <time>2018-03-18T10:23:42Z</time>
      </trkpt>
      <trkpt lat="47.22045" lon="-1.55035">
        <ele>82.96</ele>
        <time>2018-03-18T10:24:01Z</time>
      </trkpt>
      <trkpt lat="47.22062" lon="-1.55049">
        <ele>81.32</ele>
        <time>2018-03-18T10:24:18Z</time>
      </trkpt>
      <trkpt lat="47.22081" lon="-1.55057">
        <ele>78.77</ele>
        <time>2018-03-18T10:24:31Z</time>
      </trkpt>
      <trkpt lat="47.221" lon="-1.55068">
        <ele>69.49</ele>
        <time>2018-03-18T10:25:00Z</time>
      </trkpt>
      <trkpt lat="47.22114" lon="-1.55086">
        <ele>68.13</ele>
        <time>2018-03-18T10:25:19Z</time>
      </trkpt>
      <trkpt lat="47.22133" lon="-1.55096">
        <ele>68.06</ele>
        <time>2018-03-18T10:25:31Z</time>
      </trkpt>
      <trkpt lat="47.2215" lon="-1.55106">
        <ele>65.83</ele>
        <time>2018-03-18T10:25:46Z</time>
      </trkpt>
      <trkpt lat="47.22167" lon="-1.55119">
        <ele>60.76</ele>
        <time>2018-03-18T10:26:06Z</time>
      </trkpt>
      <trkpt lat="47.2218" lon="-1.55139">
        <ele>57.44</ele>
        <time>2018-03-18T10:26:23Z</time>
      </trkpt>
      <trkpt lat="47.22194" lon="-1.55156">
        <ele>55.74</ele>
        <time>2018-03-18T10:26:39Z</time>
      </trkpt>
      <trkpt lat="47.22208" lon="-1.55175">
        <ele>54.76</ele>
        <time>2018-03-18T10:26:47Z</time>
      </trkpt>
      <trkpt lat="47.22228" lon="-1.55176">
        <ele>50.73</ele>
        <time>2018-03-18T10:27:08Z</time>
      </trkpt>
      <trkpt lat="47.22243" lon="-1.55192">
        <ele>48.23</ele>
        <time>2018-03-18T10:27:29Z</time>
      </trkpt>
      <trkpt lat="47.22258" lon="-1.55206">
        <ele>50.06</ele>
        <time>2018-03-18T10:27:49Z</time>
      </trkpt>
      <trkpt lat="47.22275" lon="-1.5522">
        <ele>55.95</ele>
        <time>2018-03-18T10:28:08Z</time>
      </trkpt>
      <trkpt lat="47.22281" lon="-1.55247">
        <ele>56.68</ele>
        <time>2018-03-18T10:28:21Z</time>
      </trkpt>
      <trkpt lat="47.22278" lon="-1.55275">
        <ele>56.01</ele>
        <time>2018-03-18T10:28:32Z</time>
      </trkpt>
      <trkpt lat="47.22273" lon="-1.55301">
        <ele>55.64</ele>
        <time>2018-03-18T10:28:41Z</time>
      </trkpt>
      <trkpt lat="47.22274" lon="-1.55328">
        <ele>56.57</ele>
        <time>2018-03-18T10:28:59Z</time>
      </trkpt>
      <trkpt lat="47.22285" lon="-1.55349">
        <ele>57.53</ele>
        <time>2018-03-18T10:29:19Z</time>
      </trkpt>
      <trkpt lat="47.2229" lon="-1.55375">
        <ele>55.74</ele>
        <time>2018-03-18T10:29:50Z</time>
      </trkpt>
      <trkpt lat="47.22301" lon="-1.55397">
        <ele>55.36</ele>
        <time>2018-03-18T10:30:04Z</time>
      </trkpt>
      <trkpt lat="47.22307" lon="-1.55368">
        <ele>57.26</ele>
        <time>2018-03-18T10:31:01Z</time>
      </trkpt>
      <trkpt lat="47.22309" lon="-1.55341">
        <ele>46.96</ele>
        <time>2018-03-18T10:31:29Z</time>
      </trkpt>
      <trkpt lat="47.2233" lon="-1.55341">
        <ele>42.87</ele>
        <time>2018-03-18T10:31:38Z</time>
      </trkpt>
      <trkpt lat="47.22362" lon="-1.55346">
        <ele>41.05</ele>
        <time>2018-03-18T10:31:43Z</time>
      </trkpt>
      <trkpt lat="47.22381" lon="-1.55351">
        <ele>39.84</ele>
        <time>2018-03-18T10:31:46Z</time>
      </trkpt>
      <trkpt lat="47.22399" lon="-1.55356">
        <ele>37.76</ele>
        <time>2018-03-18T10:31:56Z</time>
      </trkpt>
      <trkpt lat="47.22416" lon="-1.55363">
        <ele>38.6</ele>
        <time>2018-03-18T10:32:11Z</time>
      </trkpt>
      <trkpt lat="47.22432" lon="-1.55377">
        <ele>44.55</ele>
        <time>2018-03-18T10:32:40Z</time>
      </trkpt>
      <trkpt lat="47.22447" lon="-1.55396">
        <ele>49.73</ele>
        <time>2018-03-18T10:33:01Z</time>
      </trkpt>
      <trkpt lat="47.22458" lon="-1.5542">
        <ele>52.33</ele>
        <time>2018-03-18T10:33:16Z</time>
      </trkpt>
      <trkpt lat="47.22469" lon="-1.55444">
        <ele>53.57</ele>
        <time>2018-03-18T10:33:31Z</time>
      </trkpt>
      <trkpt lat="47.22473" lon="-1.55472">
        <ele>56.18</ele>
        <time>2018-03-18T10:33:57Z</time>
      </trkpt>
      <trkpt lat="47.22479" lon="-1.55499">
        <ele>55.86</ele>
        <time>2018-03-18T10:34:19Z</time>
      </trkpt>
      <trkpt lat="47.22496" lon="-1.55515">
        <ele>56.46</ele>
        <time>2018-03-18T10:34:37Z</time>
      </trkpt>
      <trkpt lat="47.22511" lon="-1.55535">
        <ele>55.47</ele>
        <time>2018-03-18T10:34:52Z</time>
      </trkpt>
      <trkpt lat="47.22526" lon="-1.55548">
        <ele>54.99</ele>
        <time>2018-03-18T10:35:09Z</time>
      </trkpt>
      <trkpt lat="47.22544" lon="-1.55554">
        <ele>57.6</ele>
        <time>2018-03-18T10:35:23Z</time>
      </trkpt>
      <trkpt lat="47.22561" lon="-1.55566">
        <ele>59.09</ele>
        <time>2018-03-18T10:36:02Z</time>
      </trkpt>
      <trkpt lat="47.22579" lon="-1.55562">
        <ele>60.25</ele>
        <time>2018-03-18T10:36:12Z</time>
      </trkpt>
      <trkpt lat="47.22598" lon="-1.5556">
        <ele>62.07</ele>
        <time>2018-03-18T10:36:48Z</time>
      </trkpt>
      <trkpt lat="47.22615" lon="-1.55553">
        <ele>60.84</ele>
        <time>2018-03-18T10:37:00Z</time>
      </trkpt>
      <trkpt lat="47.22634" lon="-1.55545">
        <ele>60.16</ele>
        <time>2018-03-18T10:37:09Z</time>
      </trkpt>
      <trkpt lat="47.22652" lon="-1.5554">
        <ele>59.23</ele>
        <time>2018-03-18T10:37:19Z</time>
      </trkpt>
      <trkpt lat="47.2267" lon="-1.55532">
        <ele>56.54</ele>
        <time>2018-03-18T10:37:33Z</time>
      </trkpt>
      <trkpt lat="47.22686" lon="-1.55548">
        <ele>56.81</ele>
        <time>2018-03-18T10:37:48Z</time>
      </trkpt>
      <trkpt lat="47.22695" lon="-1.55572">
        <ele>56.82</ele>
        <time>2018-03-18T10:38:01Z</time>
      </trkpt>
      <trkpt lat="47.22709" lon="-1.5559">
        <ele>55.12</ele>
        <time>2018-03-18T10:38:21Z</time>
      </trkpt>
      <trkpt lat="47.22722" lon="-1.5561">
        <ele>50.51</ele>
        <time>2018-03-18T10:38:46Z</time>
      </trkpt>
      <trkpt lat="47.22736" lon="-1.55628">
        <ele>46.73</ele>
        <time>2018-03-18T10:39:00Z</time>
      </trkpt>
      <trkpt lat="47.22754" lon="-1.55623">
        <ele>55.67</ele>
        <time>2018-03-18T10:39:55Z</time>
      </trkpt>
      <trkpt lat="47.22766" lon="-1.55603">
        <ele>58.93</ele>
        <time>2018-03-18T10:40:17Z</time>
      </trkpt>
      <trkpt lat="47.22783" lon="-1.55592">
        <ele>59.52</ele>
        <time>2018-03-18T10:40:41Z</time>
      </trkpt>
      <trkpt lat="47.22797" lon="-1.55573">
        <ele>59.35</ele>
        <time>2018-03-18T10:40:56Z</time>
      </trkpt>
      <trkpt lat="47.22811" lon="-1.55554">
        <ele>55.48</ele>
        <time>2018-03-18T10:41:20Z</time>
      </trkpt>
      <trkpt lat="47.22826" lon="-1.55538">
        <ele>51.04</ele>
        <time>2018-03-18T10:41:36Z</time>
      </trkpt>
      <trkpt lat="47.22841" lon="-1.55522">
        <ele>48.06</ele>
        <time>2018-03-18T10:41:56Z</time>
      </trkpt>
      <trkpt lat="47.22842" lon="-1.55495">
        <ele>44.32</ele>
        <time>2018-03-18T10:42:22Z</time>
      </trkpt>
      <trkpt lat="47.22855" lon="-1.55475">
        <ele>41.51</ele>
        <time>2018-03-18T10:42:34Z</time>
      </trkpt>
      <trkpt lat="47.22866" lon="-1.55453">
        <ele>35.25</ele>
        <time>2018-03-18T10:42:54Z</time>
      </trkpt>
      <trkpt lat="47.22879" lon="-1.55431">
        <ele>30.7</ele>
        <time>2018-03-18T10:43:14Z</time>
      </trkpt>
      <trkpt lat="47.22894" lon="-1.55416">
        <ele>29.86</ele>
        <time>2018-03-18T10:43:58Z</time>
      </trkpt>
      <trkpt lat="47.22935" lon="-1.55376">
        <ele>42.37</ele>
        <time>2018-03-18T10:44:42Z</time>
      </trkpt>
      <trkpt lat="47.2295" lon="-1.55362">
        <ele>43.75</ele>
        <time>2018-03-18T10:45:19Z</time>
      </trkpt>
      <trkpt lat="47.22958" lon="-1.55338">
        <ele>42.92</ele>
        <time>2018-03-18T10:45:44Z</time>
      </trkpt>
      <trkpt lat="47.22969" lon="-1.55317">
        <ele>38.8</ele>
        <time>2018-03-18T10:46:14Z</time>
      </trkpt>
      <trkpt lat="47.22978" lon="-1.55293">
        <ele>34.62</ele>
        <time>2018-03-18T10:46:35Z</time>
      </trkpt>
      <trkpt lat="47.22988" lon="-1.5527">
        <ele>32.3</ele>
        <time>2018-03-18T10:46:55Z</time>
      </trkpt>
      <trkpt lat="47.22996" lon="-1.55246">
        <ele>30.34</ele>
        <time>2018-03-18T10:47:18Z</time>
      </trkpt>
      <trkpt lat="47.2301" lon="-1.55227">
        <ele>27.5</ele>
        <time>2018-03-18T10:47:36Z</time>
      </trkpt>
      <trkpt lat="47.23019" lon="-1.55204">
        <ele>27.17</ele>
        <time>2018-03-18T10:47:48Z</time>
      </trkpt>
      <trkpt lat="47.23024" lon="-1.55178">
        <ele>30.7</ele>
        <time>2018-03-18T10:48:06Z</time>
      </trkpt>
      <trkpt lat="47.23039" lon="-1.55163">
        <ele>32.37</ele>
        <time>2018-03-18T10:48:20Z</time>
      </trkpt>
      <trkpt lat="47.2305" lon="-1.5514">
        <ele>36.11</ele>
        <time>2018-03-18T10:48:47Z</time>
      </trkpt>
      <trkpt lat="47.23066" lon="-1.55126">
        <ele>37.19</ele>
        <time>2018-03-18T10:49:07Z</time>
      </trkpt>
      <trkpt lat="47.23084" lon="-1.5512">
        <ele>35.6</ele>
        <time>2018-03-18T10:49:41Z</time>
      </trkpt>
      <trkpt lat="47.23092" lon="-1.55096">
        <ele>29.17</ele>
        <time>2018-03-18T10:50:32Z</time>
      </trkpt>
      <trkpt lat="47.23107" lon="-1.55082">
        <ele>25.24</ele>
        <time>2018-03-18T10:51:02Z</time>
      </trkpt>
      <trkpt lat="47.23125" lon="-1.55081">
        <ele>25.5</ele>
        <time>2018-03-18T10:51:12Z</time>
      </trkpt>
      <trkpt lat="47.23142" lon="-1.55092">
        <ele>25.95</ele>
        <time>2018-03-18T10:51:24Z</time>
      </trkpt>
      <trkpt lat="47.23159" lon="-1.55084">
        <ele>30.3</ele>
        <time>2018-03-18T10:51:42Z</time>
      </trkpt>
      <trkpt lat="47.2318" lon="-1.55073">
        <ele>35.22</ele>
        <time>2018-03-18T10:52:05Z</time>
      </trkpt>
      <trkpt lat="47.23196" lon="-1.55057">
        <ele>36.57</ele>
        <time>2018-03-18T10:52:16Z</time>
      </trkpt>
      <trkpt lat="47.2321" lon="-1.55038">
        <ele>37.78</ele>
        <time>2018-03-18T10:52:27Z</time>
      </trkpt>
      <trkpt lat="47.23219" lon="-1.55014">
        <ele>38.86</ele>
        <time>2018-03-18T10:52:42Z</time>
      </trkpt>
      <trkpt lat="47.23222" lon="-1.54986">
        <ele>38.17</ele>
        <time>2018-03-18T10:53:00Z</time>
      </trkpt>
      <trkpt lat="47.23225" lon="-1.54959">
        <ele>37.05</ele>
        <time>2018-03-18T10:53:15Z</time>
      </trkpt>
      <trkpt lat="47.2324" lon="-1.54944">
        <ele>38.41</ele>
        <time>2018-03-18T10:53:50Z</time>
      </trkpt>
      <trkpt lat="47.23259" lon="-1.54943">
        <ele>40.25</ele>
        <time>2018-03-18T10:54:06Z</time>
      </trkpt>
      <trkpt lat="47.23277" lon="-1.54943">
        <ele>42.65</ele>
        <time>2018-03-18T10:54:26Z</time>
      </trkpt>
      <trkpt lat="47.23299" lon="-1.54941">
        <ele>45.44</ele>
        <time>2018-03-18T10:54:47Z</time>
      </trkpt>
      <trkpt lat="47.23323" lon="-1.54949">
        <ele>45.56</ele>
        <time>2018-03-18T10:54:52Z</time>
      </trkpt>
      <trkpt lat="47.23339" lon="-1.54961">
        <ele>44.75</ele>
        <time>2018-03-18T10:55:04Z</time>
      </trkpt>
      <trkpt lat="47.23358" lon="-1.54962">
        <ele>43.83</ele>
        <time>2018-03-18T10:55:21Z</time>
      </trkpt>
      <trkpt lat="47.23376" lon="-1.54975">
        <ele>41.81</ele>
        <time>2018-03-18T10:55:32Z</time>
      </trkpt>
      <trkpt lat="47.23395" lon="-1.54981">
        <ele>40.04</ele>
        <time>2018-03-18T10:55:41Z</time>
      </trkpt>
      <trkpt lat="47.23415" lon="-1.54973">
        <ele>34.49</ele>
        <time>2018-03-18T10:56:09Z</time>
      </trkpt>
      <trkpt lat="47.23426" lon="-1.54952">
        <ele>31.46</ele>
        <time>2018-03-18T10:56:21Z</time>
      </trkpt>
      <trkpt lat="47.23434" lon="-1.54926">
        <ele>29.95</ele>
        <time>2018-03-18T10:56:36Z</time>
      </trkpt>
      <trkpt lat="47.23437" lon="-1.549">
        <ele>28.63</ele>
        <time>2018-03-18T10:57:02Z</time>
      </trkpt>
      <trkpt lat="47.23418" lon="-1.54895">
        <ele>27.86</ele>
        <time>2018-03-18T10:57:20Z</time>
      </trkpt>
      <trkpt lat="47.23398" lon="-1.54902">
        <ele>26.76</ele>
        <time>2018-03-18T10:57:39Z</time>
      </trkpt>
      <trkpt lat="47.2338" lon="-1.54905">
        <ele>24.67</ele>
        <time>2018-03-18T10:57:54Z</time>
      </trkpt>
      <trkpt lat="47.23362" lon="-1.54903">
        <ele>22.38</ele>
        <time>2018-03-18T10:58:08Z</time>
      </trkpt>
      <trkpt lat="47.23343" lon="-1.54906">
        <ele>19.18</ele>
        <time>2018-03-18T10:58:27Z</time>
      </trkpt>
      <trkpt lat="47.23324" lon="-1.54906">
        <ele>16.65</ele>
        <time>2018-03-18T10:58:41Z</time>
      </trkpt>
      <trkpt lat="47.23306" lon="-1.54904">
        <ele>15.7</ele>
        <time>2018-03-18T10:58:52Z</time>
      </trkpt>
      <trkpt lat="47.23288" lon="-1.54896">
        <ele>15.75</ele>
        <time>2018-03-18T10:59:05Z</time>
      </trkpt>
      <trkpt lat="47.23268" lon="-1.54894">
        <ele>17.04</ele>
        <time>2018-03-18T10:59:15Z</time>
      </trkpt>
      <trkpt lat="47.2325" lon="-1.54894">
        <ele>18.72</ele>
        <time>2018-03-18T10:59:25Z</time>
      </trkpt>
      <trkpt lat="47.23232" lon="-1.54895">
        <ele>21.31</ele>
        <time>2018-03-18T10:59:39Z</time>
      </trkpt>
      <trkpt lat="47.23213" lon="-1.54901">
        <ele>24.96</ele>
        <time>2018-03-18T10:59:59Z</time>
      </trkpt>
      <trkpt lat="47.23194" lon="-1.54907">
        <ele>25.87</ele>
        <time>2018-03-18T11:00:09Z</time>
      </trkpt>
      <trkpt lat="47.23175" lon="-1.54914">
        <ele>26.85</ele>
        <time>2018-03-18T11:00:27Z</time>
      </trkpt>
      <trkpt lat="47.2316" lon="-1.54929">
        <ele>26.63</ele>
        <time>2018-03-18T11:00:40Z</time>
      </trkpt>
      <trkpt lat="47.23143" lon="-1.54942">
        <ele>25.51</ele>
        <time>2018-03-18T11:00:53Z</time>
      </trkpt>
      <trkpt lat="47.23128" lon="-1.54958">
        <ele>23.05</ele>
        <time>2018-03-18T11:01:09Z</time>
      </trkpt>
      <trkpt lat="47.23114" lon="-1.54976">
        <ele>21.28</ele>
        <time>2018-03-18T11:01:26Z</time>
      </trkpt>
      <trkpt lat="47.23099" lon="-1.54994">
        <ele>19.98</ele>
        <time>2018-03-18T11:01:43Z</time>
      </trkpt>
      <trkpt lat="47.23086" lon="-1.55013">
        <ele>21.25</ele>
        <time>2018-03-18T11:02:05Z</time>
      </trkpt>
      <trkpt lat="47.2307" lon="-1.55029">
        <ele>22.78</ele>
        <time>2018-03-18T11:02:22Z</time>
      </trkpt>
      <trkpt lat="47.23055" lon="-1.55047">
        <ele>24</ele>
        <time>2018-03-18T11:02:36Z</time>
      </trkpt>
      <trkpt lat="47.2304" lon="-1.55065">
        <ele>24.77</ele>
        <time>2018-03-18T11:02:52Z</time>
      </trkpt>
      <trkpt lat="47.23026" lon="-1.55084">
        <ele>25.47</ele>
        <time>2018-03-18T11:03:11Z</time>
      </trkpt>
      <trkpt lat="47.23011" lon="-1.55101">
        <ele>25.63</ele>
        <time>2018-03-18T11:03:26Z</time>
      </trkpt>
      <trkpt lat="47.22999" lon="-1.5512">
        <ele>24.96</ele>
        <time>2018-03-18T11:03:42Z</time>
      </trkpt>
      <trkpt lat="47.22984" lon="-1.55136">
        <ele>25.31</ele>
        <time>2018-03-18T11:03:58Z</time>
      </trkpt>
      <trkpt lat="47.2297" lon="-1.55155">
        <ele>24.93</ele>
        <time>2018-03-18T11:04:15Z</time>
      </trkpt>
      <trkpt lat="47.22957" lon="-1.55175">
        <ele>24.63</ele>
        <time>2018-03-18T11:04:32Z</time>
      </trkpt>
      <trkpt lat="47.22941" lon="-1.55189">
        <ele>24.09</ele>
        <time>2018-03-18T11:04:47Z</time>
      </trkpt>
      <trkpt lat="47.22926" lon="-1.55207">
        <ele>23.37</ele>
        <time>2018-03-18T11:05:05Z</time>
      </trkpt>
      <trkpt lat="47.22912" lon="-1.55225">
        <ele>23.99</ele>
        <time>2018-03-18T11:05:19Z</time>
      </trkpt>
      <trkpt lat="47.22899" lon="-1.55243">
        <ele>25.63</ele>
        <time>2018-03-18T11:05:34Z</time>
      </trkpt>
      <trkpt lat="47.22883" lon="-1.55258">
        <ele>27.27</ele>
        <time>2018-03-18T11:05:50Z</time>
      </trkpt>
      <trkpt lat="47.22868" lon="-1.55276">
        <ele>28.71</ele>
        <time>2018-03-18T11:06:07Z</time>
      </trkpt>
      <trkpt lat="47.22854" lon="-1.55294">
        <ele>29.56</ele>
        <time>2018-03-18T11:06:21Z</time>
      </trkpt>
      <trkpt lat="47.22839" lon="-1.55309">
        <ele>29.8</ele>
        <time>2018-03-18T11:06:40Z</time>
      </trkpt>
      <trkpt lat="47.22824" lon="-1.55293">
        <ele>25.07</ele>
        <time>2018-03-18T11:07:08Z</time>
      </trkpt>
      <trkpt lat="47.22813" lon="-1.55272">
        <ele>21.88</ele>
        <time>2018-03-18T11:07:31Z</time>
      </trkpt>
      <trkpt lat="47.22801" lon="-1.55251">
        <ele>20.65</ele>
        <time>2018-03-18T11:07:49Z</time>
      </trkpt>
      <trkpt lat="47.22787" lon="-1.55231">
        <ele>18.85</ele>
        <time>2018-03-18T11:08:05Z</time>
      </trkpt>
      <trkpt lat="47.22769" lon="-1.55223">
        <ele>16.62</ele>
        <time>2018-03-18T11:08:21Z</time>
      </trkpt>
      <trkpt lat="47.2275" lon="-1.55236">
        <ele>17.99</ele>
        <time>2018-03-18T11:08:41Z</time>
      </trkpt>
      <trkpt lat="47.22735" lon="-1.55251">
        <ele>19.36</ele>
        <time>2018-03-18T11:08:56Z</time>
      </trkpt>
      <trkpt lat="47.22722" lon="-1.5527">
        <ele>20.18</ele>
        <time>2018-03-18T11:09:08Z</time>
      </trkpt>
      <trkpt lat="47.2271" lon="-1.55289">
        <ele>19.64</ele>
        <time>2018-03-18T11:09:21Z</time>
      </trkpt>
      <trkpt lat="47.22698" lon="-1.55312">
        <ele>19.65</ele>
        <time>2018-03-18T11:09:36Z</time>
      </trkpt>
      <trkpt lat="47.22681" lon="-1.55323">
        <ele>22.4</ele>
        <time>2018-03-18T11:09:52Z</time>
      </trkpt>
      <trkpt lat="47.22662" lon="-1.55328">
        <ele>26.36</ele>
        <time>2018-03-18T11:10:23Z</time>
      </trkpt>
      <trkpt lat="47.22643" lon="-1.55324">
        <ele>27.01</ele>
        <time>2018-03-18T11:10:32Z</time>
      </trkpt>
      <trkpt lat="47.22624" lon="-1.55319">
        <ele>28.81</ele>
        <time>2018-03-18T11:10:43Z</time>
      </trkpt>
      <trkpt lat="47.22605" lon="-1.55317">
        <ele>30.46</ele>
        <time>2018-03-18T11:10:55Z</time>
      </trkpt>
      <trkpt lat="47.22587" lon="-1.55309">
        <ele>32.29</ele>
        <time>2018-03-18T11:11:08Z</time>
      </trkpt>
      <trkpt lat="47.22569" lon="-1.55307">
        <ele>33.66</ele>
        <time>2018-03-18T11:11:26Z</time>
      </trkpt>
      <trkpt lat="47.22551" lon="-1.55301">
        <ele>34.75</ele>
        <time>2018-03-18T11:11:42Z</time>
      </trkpt>
      <trkpt lat="47.22533" lon="-1.55297">
        <ele>36.24</ele>
        <time>2018-03-18T11:11:56Z</time>
      </trkpt>
      <trkpt lat="47.22513" lon="-1.55289">
        <ele>36.39</ele>
        <time>2018-03-18T11:12:18Z</time>
      </trkpt>
      <trkpt lat="47.22494" lon="-1.55286">
        <ele>35.67</ele>
        <time>2018-03-18T11:12:27Z</time>
      </trkpt>
      <trkpt lat="47.22476" lon="-1.55278">
        <ele>33.66</ele>
        <time>2018-03-18T11:12:52Z</time>
      </trkpt>
      <trkpt lat="47.22457" lon="-1.55275">
        <ele>33.52</ele>
        <time>2018-03-18T11:13:00Z</time>
      </trkpt>
      <trkpt lat="47.22437" lon="-1.55276">
        <ele>33.2</ele>
        <time>2018-03-18T11:13:14Z</time>
      </trkpt>
      <trkpt lat="47.22419" lon="-1.55271">
        <ele>30.01</ele>
        <time>2018-03-18T11:13:32Z</time>
      </trkpt>
      <trkpt lat="47.224" lon="-1.55263">
        <ele>28.38</ele>
        <time>2018-03-18T11:13:48Z</time>
      </trkpt>
      <trkpt lat="47.2238" lon="-1.55264">
        <ele>27.93</ele>
        <time>2018-03-18T11:14:01Z</time>
      </trkpt>
      <trkpt lat="47.22362" lon="-1.55261">
        <ele>28.65</ele>
        <time>2018-03-18T11:14:14Z</time>
      </trkpt>
      <trkpt lat="47.22342" lon="-1.55258">
        <ele>31.16</ele>
        <time>2018-03-18T11:14:28Z</time>
      </trkpt>
      <trkpt lat="47.22324" lon="-1.5525">
        <ele>33.94</ele>
        <time>2018-03-18T11:14:43Z</time>
      </trkpt>
      <trkpt lat="47.22307" lon="-1.55241">
        <ele>35.41</ele>
        <time>2018-03-18T11:14:52Z</time>
      </trkpt>
      <trkpt lat="47.22293" lon="-1.55223">
        <ele>32.63</ele>
        <time>2018-03-18T11:15:13Z</time>
      </trkpt>
      <trkpt lat="47.22288" lon="-1.55197">
        <ele>27.58</ele>
        <time>2018-03-18T11:15:30Z</time>
      </trkpt>
      <trkpt lat="47.22297" lon="-1.55174">
        <ele>25.54</ele>
        <time>2018-03-18T11:15:39Z</time>
      </trkpt>
      <trkpt lat="47.2231" lon="-1.55155">
        <ele>23.27</ele>
        <time>2018-03-18T11:15:56Z</time>
      </trkpt>
      <trkpt lat="47.22324" lon="-1.55136">
        <ele>19.68</ele>
        <time>2018-03-18T11:16:13Z</time>
      </trkpt>
      <trkpt lat="47.22338" lon="-1.55118">
        <ele>17.06</ele>
        <time>2018-03-18T11:16:24Z</time>
      </trkpt>
      <trkpt lat="47.22354" lon="-1.551">
        <ele>14.86</ele>
        <time>2018-03-18T11:16:38Z</time>
      </trkpt>
      <trkpt lat="47.22371" lon="-1.55087">
        <ele>15.65</ele>
        <time>2018-03-18T11:16:47Z</time>
      </trkpt>
      <trkpt lat="47.22387" lon="-1.55071">
        <ele>18.08</ele>
        <time>2018-03-18T11:17:02Z</time>
      </trkpt>
      <trkpt lat="47.22393" lon="-1.55045">
        <ele>17.43</ele>
        <time>2018-03-18T11:17:24Z</time>
      </trkpt>
      <trkpt lat="47.22401" lon="-1.5502">
        <ele>16.16</ele>
        <time>2018-03-18T11:17:40Z</time>
      </trkpt>
      <trkpt lat="47.22413" lon="-1.55">
        <ele>15.49</ele>
        <time>2018-03-18T11:17:57Z</time>
      </trkpt>
      <trkpt lat="47.2243" lon="-1.54989">
        <ele>15.25</ele>
        <time>2018-03-18T11:18:08Z</time>
      </trkpt>
      <trkpt lat="47.22444" lon="-1.54971">
        <ele>15.45</ele>
        <time>2018-03-18T11:18:25Z</time>
      </trkpt>
      <trkpt lat="47.22457" lon="-1.54951">
        <ele>14.53</ele>
        <time>2018-03-18T11:18:47Z</time>
      </trkpt>
      <trkpt lat="47.22472" lon="-1.54934">
        <ele>13.96</ele>
        <time>2018-03-18T11:19:03Z</time>
      </trkpt>
      <trkpt lat="47.22484" lon="-1.54913">
        <ele>14.54</ele>
        <time>2018-03-18T11:19:19Z</time>
      </trkpt>
      <trkpt lat="47.22497" lon="-1.54893">
        <ele>16.04</ele>
        <time>2018-03-18T11:19:36Z</time>
      </trkpt>
      <trkpt lat="47.22514" lon="-1.54881">
        <ele>18.59</ele>
        <time>2018-03-18T11:20:03Z</time>
      </trkpt>
      <trkpt lat="47.22527" lon="-1.54861">
        <ele>20.33</ele>
        <time>2018-03-18T11:20:14Z</time>
      </trkpt>
      <trkpt lat="47.22541" lon="-1.54842">
        <ele>22.25</ele>
        <time>2018-03-18T11:20:32Z</time>
      </trkpt>
      <trkpt lat="47.22553" lon="-1.54822">
        <ele>22.41</ele>
        <time>2018-03-18T11:20:48Z</time>
      </trkpt>
      <trkpt lat="47.22541" lon="-1.54802">
        <ele>23.39</ele>
        <time>2018-03-18T11:20:58Z</time>
      </trkpt>
      <trkpt lat="47.22534" lon="-1.54777">
        <ele>25</ele>
        <time>2018-03-18T11:21:08Z</time>
      </trkpt>
      <trkpt lat="47.22522" lon="-1.54754">
        <ele>27.93</ele>
        <time>2018-03-18T11:21:32Z</time>
      </trkpt>
      <trkpt lat="47.22511" lon="-1.54732">
        <ele>29.13</ele>
        <time>2018-03-18T11:21:50Z</time>
      </trkpt>
      <trkpt lat="47.22495" lon="-1.54712">
        <ele>29.71</ele>
        <time>2018-03-18T11:22:05Z</time>
      </trkpt>
      <trkpt lat="47.22481" lon="-1.54693">
        <ele>29.85</ele>
        <time>2018-03-18T11:22:24Z</time>
      </trkpt>
      <trkpt lat="47.22461" lon="-1.54684">
        <ele>29.61</ele>
        <time>2018-03-18T11:22:34Z</time>
      </trkpt>
      <trkpt lat="47.22443" lon="-1.54685">
        <ele>26.07</ele>
        <time>2018-03-18T11:22:52Z</time>
      </trkpt>
      <trkpt lat="47.22427" lon="-1.54697">
        <ele>22.38</ele>
        <time>2018-03-18T11:23:05Z</time>
      </trkpt>
      <trkpt lat="47.22411" lon="-1.54709">
        <ele>17.19</ele>
        <time>2018-03-18T11:23:21Z</time>
      </trkpt>
      <trkpt lat="47.22392" lon="-1.5472">
        <ele>12.99</ele>
        <time>2018-03-18T11:23:34Z</time>
      </trkpt>
      <trkpt lat="47.22375" lon="-1.54731">
        <ele>7.69</ele>
        <time>2018-03-18T11:23:49Z</time>
      </trkpt>
      <trkpt lat="47.22358" lon="-1.54741">
        <ele>2.82</ele>
        <time>2018-03-18T11:24:05Z</time>
      </trkpt>
      <trkpt lat="47.22341" lon="-1.54749">
        <ele>2.06</ele>
        <time>2018-03-18T11:24:22Z</time>
      </trkpt>
      <trkpt lat="47.22323" lon="-1.54762">
        <ele>5.13</ele>
        <time>2018-03-18T11:24:42Z</time>
      </trkpt>
      <trkpt lat="47.22304" lon="-1.54769">
        <ele>8.48</ele>
        <time>2018-03-18T11:24:54Z</time>
      </trkpt>
      <trkpt lat="47.22287" lon="-1.54782">
        <ele>12.92</ele>
        <time>2018-03-18T11:25:06Z</time>
      </trkpt>
      <trkpt lat="47.2227" lon="-1.54794">
        <ele>15.99</ele>
        <time>2018-03-18T11:25:25Z</time>
      </trkpt>
      <trkpt lat="47.22256" lon="-1.54812">
        <ele>14.99</ele>
        <time>2018-03-18T11:25:49Z</time>
      </trkpt>
      <trkpt lat="47.22246" lon="-1.54837">
        <ele>14.31</ele>
        <time>2018-03-18T11:26:06Z</time>
      </trkpt>
      <trkpt lat="47.22232" lon="-1.54855">
        <ele>14.51</ele>
        <time>2018-03-18T11:26:18Z</time>
      </trkpt>
      <trkpt lat="47.22217" lon="-1.54871">
        <ele>14.4</ele>
        <time>2018-03-18T11:26:34Z</time>
      </trkpt>
      <trkpt lat="47.22198" lon="-1.54872">
        <ele>11.69</ele>
        <time>2018-03-18T11:26:56Z</time>
      </trkpt>
      <trkpt lat="47.22183" lon="-1.54856">
        <ele>10.16</ele>
        <time>2018-03-18T11:27:10Z</time>
      </trkpt>
      <trkpt lat="47.22166" lon="-1.54841">
        <ele>10.67</ele>
        <time>2018-03-18T11:27:30Z</time>
      </trkpt>
      <trkpt lat="47.2215" lon="-1.54824">
        <ele>11.25</ele>
        <time>2018-03-18T11:27:44Z</time>
      </trkpt>
      <trkpt lat="47.22138" lon="-1.54803">
        <ele>14</ele>
        <time>2018-03-18T11:27:59Z</time>
      </trkpt>
      <trkpt lat="47.22121" lon="-1.54788">
        <ele>17.26</ele>
        <time>2018-03-18T11:28:14Z</time>
      </trkpt>
      <trkpt lat="47.22103" lon="-1.54789">
        <ele>15.34</ele>
        <time>2018-03-18T11:28:39Z</time>
      </trkpt>
      <trkpt lat="47.22088" lon="-1.54804">
        <ele>12.02</ele>
        <time>2018-03-18T11:28:58Z</time>
      </trkpt>
      <trkpt lat="47.22075" lon="-1.54826">
        <ele>10.45</ele>
        <time>2018-03-18T11:29:13Z</time>
      </trkpt>
      <trkpt lat="47.2206" lon="-1.54843">
        <ele>10.04</ele>
        <time>2018-03-18T11:29:23Z</time>
      </trkpt>
      <trkpt lat="47.22044" lon="-1.54857">
        <ele>10</ele>
        <time>2018-03-18T11:29:35Z</time>
      </trkpt>
      <trkpt lat="47.22027" lon="-1.54871">
        <ele>12.37</ele>
        <time>2018-03-18T11:29:54Z</time>
      </trkpt>
      <trkpt lat="47.22012" lon="-1.54887">
        <ele>12.07</ele>
        <time>2018-03-18T11:30:27Z</time>
      </trkpt>
      <trkpt lat="47.21996" lon="-1.54901">
        <ele>10.11</ele>
        <time>2018-03-18T11:30:36Z</time>
      </trkpt>
      <trkpt lat="47.21979" lon="-1.54912">
        <ele>7.93</ele>
        <time>2018-03-18T11:30:49Z</time>
      </trkpt>
      <trkpt lat="47.21962" lon="-1.54926">
        <ele>6.8</ele>
        <time>2018-03-18T11:31:08Z</time>
      </trkpt>
      <trkpt lat="47.21946" lon="-1.5494">
        <ele>6.65</ele>
        <time>2018-03-18T11:31:19Z</time>
      </trkpt>
      <trkpt lat="47.21927" lon="-1.54943">
        <ele>6.12</ele>
        <time>2018-03-18T11:31:40Z</time>
      </trkpt>
      <trkpt lat="47.21909" lon="-1.54937">
        <ele>6.3</ele>
        <time>2018-03-18T11:32:10Z</time>
      </trkpt>
      <trkpt lat="47.21898" lon="-1.54913">
        <ele>9.45</ele>
        <time>2018-03-18T11:32:35Z</time>
      </trkpt>
      <trkpt lat="47.21885" lon="-1.54892">
        <ele>10.16</ele>
        <time>2018-03-18T11:32:54Z</time>
      </trkpt>
      <trkpt lat="47.21867" lon="-1.54884">
        <ele>13.12</ele>
        <time>2018-03-18T11:33:15Z</time>
      </trkpt>
      <trkpt lat="47.21851" lon="-1.54872">
        <ele>14.7</ele>
        <time>2018-03-18T11:33:26Z</time>
      </trkpt>
      <trkpt lat="47.21836" lon="-1.54854">
        <ele>17.18</ele>
        <time>2018-03-18T11:33:45Z</time>
      </trkpt>
      <trkpt lat="47.2182" lon="-1.54841">
        <ele>16.99</ele>
        <time>2018-03-18T11:33:57Z</time>
      </trkpt>
      <trkpt lat="47.21803" lon="-1.5483">
        <ele>16.17</ele>
        <time>2018-03-18T11:34:10Z</time>
      </trkpt>
      <trkpt lat="47.2179" lon="-1.54809">
        <ele>9.81</ele>
        <time>2018-03-18T11:35:06Z</time>
      </trkpt>
      <trkpt lat="47.21776" lon="-1.54792">
        <ele>4.01</ele>
        <time>2018-03-18T11:35:37Z</time>
      </trkpt>
      <trkpt lat="47.21765" lon="-1.54813">
        <ele>12</ele>
        <time>2018-03-18T11:38:38Z</time>
      </trkpt>
      <trkpt lat="47.21752" lon="-1.5483">
        <ele>12.2</ele>
        <time>2018-03-18T11:41:29Z</time>
      </trkpt>
      <trkpt lat="47.2177" lon="-1.54829">
        <ele>6.79</ele>
        <time>2018-03-18T11:42:50Z</time>
      </trkpt>
      <trkpt lat="47.21786" lon="-1.5484">
        <ele>5.53</ele>
        <time>2018-03-18T11:44:32Z</time>
      </trkpt>
      <trkpt lat="47.21803" lon="-1.54852">
        <ele>5.92</ele>
        <time>2018-03-18T11:44:47Z</time>
      </trkpt>
      <trkpt lat="47.2182" lon="-1.54866">
        <ele>6.23</ele>
        <time>2018-03-18T11:45:12Z</time>
      </trkpt>
      <trkpt lat="47.21835" lon="-1.54881">
        <ele>5.71</ele>
        <time>2018-03-18T11:45:29Z</time>
      </trkpt>
      <trkpt lat="47.21852" lon="-1.54891">
        <ele>5.69</ele>
        <time>2018-03-18T11:45:46Z</time>
      </trkpt>
      <trkpt lat="47.2187" lon="-1.54903">
        <ele>6.86</ele>
        <time>2018-03-18T11:46:02Z</time>
      </trkpt>
      <trkpt lat="47.21882" lon="-1.54923">
        <ele>5.32</ele>
        <time>2018-03-18T11:46:31Z</time>
      </trkpt>
      <trkpt lat="47.21893" lon="-1.54944">
        <ele>4.01</ele>
        <time>2018-03-18T11:46:43Z</time>
      </trkpt>
      <trkpt lat="47.21906" lon="-1.54963">
        <ele>1.64</ele>
        <time>2018-03-18T11:47:06Z</time>
      </trkpt>
      <trkpt lat="47.21921" lon="-1.54977">
        <ele>0.78</ele>
        <time>2018-03-18T11:47:31Z</time>
      </trkpt>
      <trkpt lat="47.21939" lon="-1.54993">
        <ele>3.45</ele>
        <time>2018-03-18T11:47:47Z</time>
      </trkpt>
    </trkseg>
  </trk>
</gpx>